createdAt,value
2024-02-18T00:00:02.614Z,91.90
2024-02-18T00:02:29.432Z,91.28
2024-02-18T00:04:56.423Z,93.17
2024-02-18T00:07:24.016Z,94.10
2024-02-18T00:09:52.860Z,94.21
2024-02-18T00:12:19.851Z,92.72
2024-02-18T00:14:46.549Z,91.21
2024-02-18T00:17:13.954Z,90.41
2024-02-18T00:19:40.708Z,89.79
2024-02-18T00:22:07.495Z,89.73
2024-02-18T00:24:34.297Z,89.84
2024-02-18T00:27:01.063Z,89.94
2024-02-18T00:29:28.099Z,89.56
2024-02-18T00:31:54.782Z,89.75
2024-02-18T00:34:23.372Z,89.70
2024-02-18T00:36:51.437Z,91.15
2024-02-18T00:39:18.510Z,92.02
2024-02-18T00:41:45.316Z,92.29
2024-02-18T00:44:12.030Z,91.92
2024-02-18T00:46:45.344Z,91.59
2024-02-18T00:49:19.011Z,91.01
2024-02-18T00:51:46.576Z,92.29
2024-02-18T00:54:13.553Z,92.58
2024-02-18T00:56:40.246Z,91.93
2024-02-18T00:59:07.111Z,91.23
2024-02-18T01:01:34.488Z,90.77
2024-02-18T01:04:01.793Z,90.19
2024-02-18T01:06:28.568Z,89.31
2024-02-18T01:08:55.391Z,89.49
2024-02-18T01:11:22.167Z,89.98
2024-02-18T01:13:49.025Z,90.33
2024-02-18T01:16:15.726Z,90.09
2024-02-18T01:18:44.239Z,90.20
2024-02-18T01:21:11.955Z,89.23
2024-02-18T01:23:38.987Z,88.60
2024-02-18T01:26:06.354Z,87.62
2024-02-18T01:28:33.083Z,87.51
2024-02-18T01:30:59.818Z,87.08
2024-02-18T01:33:26.616Z,87.64
2024-02-18T01:35:53.607Z,87.51
2024-02-18T01:38:20.315Z,90.09
2024-02-18T01:40:47.052Z,91.68
2024-02-18T01:43:15.915Z,92.61
2024-02-18T01:45:42.625Z,92.60
2024-02-18T01:48:09.606Z,91.21
2024-02-18T01:50:36.766Z,90.00
2024-02-18T01:53:04.453Z,88.91
2024-02-18T01:55:33.393Z,87.82
2024-02-18T01:58:01.575Z,87.27
2024-02-18T02:00:29.142Z,87.06
2024-02-18T02:02:56.042Z,84.44
2024-02-18T02:05:23.119Z,84.33
2024-02-18T02:07:53.656Z,84.36
2024-02-18T02:10:20.838Z,85.72
2024-02-18T02:12:48.517Z,86.43
2024-02-18T02:15:15.515Z,87.27
2024-02-18T02:17:42.228Z,87.31
2024-02-18T02:20:10.749Z,87.42
2024-02-18T02:22:38.477Z,88.34
2024-02-18T02:25:06.080Z,88.33
2024-02-18T02:27:39.117Z,87.11
2024-02-18T02:30:06.599Z,86.41
2024-02-18T02:32:33.757Z,86.28
2024-02-18T02:35:00.550Z,86.96
2024-02-18T02:37:27.278Z,86.90
2024-02-18T02:39:53.979Z,86.56
2024-02-18T02:42:20.963Z,87.11
2024-02-18T02:44:47.746Z,87.74
2024-02-18T02:47:14.539Z,87.48
2024-02-18T02:49:41.468Z,89.08
2024-02-18T02:52:08.210Z,89.03
2024-02-18T02:54:35.081Z,86.93
2024-02-18T02:57:01.894Z,87.79
2024-02-18T02:59:28.572Z,88.43
2024-02-18T03:01:55.275Z,88.16
2024-02-18T03:04:22.121Z,88.28
2024-02-18T03:06:49.059Z,89.31
2024-02-18T03:09:15.761Z,88.75
2024-02-18T03:11:42.441Z,88.03
2024-02-18T03:14:09.094Z,88.65
2024-02-18T03:16:35.773Z,91.11
2024-02-18T03:19:02.512Z,90.23
2024-02-18T03:21:29.398Z,90.99
2024-02-18T03:23:56.219Z,91.24
2024-02-18T03:26:23.062Z,93.12
2024-02-18T03:28:49.756Z,96.13
2024-02-18T03:31:20.094Z,97.51
2024-02-18T03:33:47.431Z,97.39
2024-02-18T03:36:14.276Z,96.96
2024-02-18T03:38:41.607Z,94.07
2024-02-18T03:41:08.796Z,93.75
2024-02-18T03:43:35.928Z,92.06
2024-02-18T03:46:03.481Z,91.09
2024-02-18T03:48:30.887Z,89.89
2024-02-18T03:50:57.832Z,88.68
2024-02-18T03:53:24.635Z,89.04
2024-02-18T03:55:51.602Z,89.94
2024-02-18T03:58:18.686Z,89.50
2024-02-18T04:00:48.063Z,88.47
2024-02-18T04:03:15.599Z,87.24
2024-02-18T04:05:43.001Z,88.11
2024-02-18T04:08:10.428Z,88.50
2024-02-18T04:10:37.448Z,88.84
2024-02-18T04:13:05.216Z,89.66
2024-02-18T04:15:32.173Z,89.79
2024-02-18T04:17:59.083Z,89.96
2024-02-18T04:20:26.127Z,88.96
2024-02-18T04:22:53.304Z,89.24
2024-02-18T04:25:20.009Z,89.67
2024-02-18T04:27:46.971Z,90.84
2024-02-18T04:30:14.283Z,91.00
2024-02-18T04:32:41.318Z,91.61
2024-02-18T04:35:08.384Z,91.94
2024-02-18T04:37:35.266Z,91.68
2024-02-18T04:40:02.153Z,91.80
2024-02-18T04:42:28.870Z,90.20
2024-02-18T04:44:55.561Z,89.76
2024-02-18T04:47:23.950Z,88.35
2024-02-18T04:49:50.851Z,89.39
2024-02-18T04:52:17.628Z,90.46
2024-02-18T04:54:44.395Z,91.76
2024-02-18T04:57:11.173Z,92.64
2024-02-18T04:59:37.861Z,93.88
2024-02-18T05:02:04.803Z,92.64
2024-02-18T05:04:33.058Z,91.91
2024-02-18T05:07:01.176Z,90.78
2024-02-18T05:09:28.249Z,89.58
2024-02-18T05:11:55.770Z,89.19
2024-02-18T05:14:22.736Z,89.49
2024-02-18T05:16:49.699Z,88.54
2024-02-18T05:19:18.396Z,88.33
2024-02-18T05:21:45.452Z,87.44
2024-02-18T05:24:13.107Z,87.04
2024-02-18T05:26:40.287Z,87.06
2024-02-18T05:29:07.765Z,87.12
2024-02-18T05:31:35.883Z,88.36
2024-02-18T05:34:03.472Z,90.82
2024-02-18T05:36:31.412Z,90.58
2024-02-18T05:38:58.112Z,90.73
2024-02-18T05:41:24.861Z,91.55
2024-02-18T05:43:51.674Z,93.18
2024-02-18T05:46:18.442Z,94.29
2024-02-18T05:48:45.911Z,95.07
2024-02-18T05:51:12.894Z,94.27
2024-02-18T05:53:39.595Z,93.38
2024-02-18T05:56:08.026Z,92.28
2024-02-18T05:58:34.917Z,90.67
2024-02-18T06:01:02.044Z,89.82
2024-02-18T06:03:28.851Z,89.42
2024-02-18T06:05:55.779Z,89.09
2024-02-18T06:08:22.683Z,88.83
2024-02-18T06:10:50.068Z,89.67
2024-02-18T06:13:16.923Z,91.15
2024-02-18T06:15:43.645Z,92.11
2024-02-18T06:18:11.593Z,92.53
2024-02-18T06:20:38.346Z,92.44
2024-02-18T06:23:05.791Z,91.50
2024-02-18T06:25:37.262Z,90.54
2024-02-18T06:28:10.621Z,89.69
2024-02-18T06:30:38.248Z,88.94
2024-02-18T06:33:06.246Z,90.26
2024-02-18T06:35:33.217Z,91.83
2024-02-18T06:38:00.197Z,92.59
2024-02-18T06:40:26.890Z,92.22
2024-02-18T06:42:53.695Z,92.04
2024-02-18T06:45:21.012Z,91.52
2024-02-18T06:47:48.996Z,90.11
2024-02-18T06:50:17.129Z,90.85
2024-02-18T06:52:43.877Z,91.29
2024-02-18T06:55:11.251Z,91.00
2024-02-18T06:57:38.518Z,90.04
2024-02-18T07:00:05.663Z,89.73
2024-02-18T07:02:32.450Z,89.14
2024-02-18T07:04:59.158Z,88.87
2024-02-18T07:07:25.946Z,88.74
2024-02-18T07:09:52.750Z,88.83
2024-02-18T07:12:19.456Z,88.11
2024-02-18T07:14:46.112Z,88.37
2024-02-18T07:17:13.967Z,88.55
2024-02-18T07:19:40.822Z,88.20
2024-02-18T07:22:08.046Z,88.00
2024-02-18T07:24:34.790Z,87.87
2024-02-18T07:27:01.504Z,87.58
2024-02-18T07:29:28.240Z,87.35
2024-02-18T07:31:54.922Z,85.51
2024-02-18T07:34:21.900Z,84.83
2024-02-18T07:36:48.755Z,84.37
2024-02-18T07:39:15.435Z,84.44
2024-02-18T07:41:42.164Z,83.65
2024-02-18T07:44:08.829Z,83.29
2024-02-18T07:46:35.492Z,84.13
2024-02-18T07:49:02.334Z,83.95
2024-02-18T07:51:29.807Z,83.03
2024-02-18T07:53:57.438Z,82.44
2024-02-18T07:56:24.127Z,81.77
2024-02-18T07:58:50.887Z,81.15
2024-02-18T08:01:17.717Z,81.11
2024-02-18T08:03:44.787Z,80.65
2024-02-18T08:06:11.628Z,80.55
2024-02-18T08:08:38.540Z,78.43
2024-02-18T08:11:05.340Z,76.15
2024-02-18T08:13:32.056Z,74.88
2024-02-18T08:15:59.894Z,72.67
2024-02-18T08:18:26.884Z,71.21
2024-02-18T08:20:53.751Z,70.33
2024-02-18T08:23:20.557Z,69.95
2024-02-18T08:25:47.528Z,68.96
2024-02-18T08:28:14.116Z,66.84
2024-02-18T08:30:40.848Z,66.08
2024-02-18T08:33:07.608Z,65.42
2024-02-18T08:35:34.319Z,64.68
2024-02-18T08:38:01.173Z,60.84
2024-02-18T08:40:27.809Z,61.31
2024-02-18T08:42:54.680Z,59.68
2024-02-18T08:45:21.310Z,57.95
2024-02-18T08:47:49.469Z,56.90
2024-02-18T08:50:16.596Z,56.61
2024-02-18T08:52:43.313Z,55.19
2024-02-18T08:55:10.137Z,53.52
2024-02-18T08:57:36.944Z,52.17
2024-02-18T09:00:04.225Z,51.09
2024-02-18T09:02:30.972Z,50.03
2024-02-18T09:05:01.009Z,48.95
2024-02-18T09:07:29.608Z,48.20
2024-02-18T09:09:56.427Z,47.52
2024-02-18T09:12:23.250Z,48.37
2024-02-18T09:14:49.946Z,48.24
2024-02-18T09:17:20.278Z,49.79
2024-02-18T09:19:48.273Z,51.17
2024-02-18T09:22:15.636Z,51.99
2024-02-18T09:24:45.846Z,50.89
2024-02-18T09:27:12.623Z,49.68
2024-02-18T09:29:39.498Z,49.53
2024-02-18T09:32:06.677Z,48.94
2024-02-18T09:34:33.640Z,47.57
2024-02-18T09:37:00.473Z,49.05
2024-02-18T09:39:27.205Z,48.95
2024-02-18T09:41:54.474Z,47.62
2024-02-18T09:44:23.757Z,46.81
2024-02-18T09:46:52.974Z,46.92
2024-02-18T09:49:21.586Z,46.43
2024-02-18T09:51:58.291Z,45.97
2024-02-18T09:54:26.763Z,45.81
2024-02-18T09:56:54.105Z,45.56
2024-02-18T09:59:20.817Z,45.20
2024-02-18T10:01:53.201Z,44.37
2024-02-18T10:04:20.083Z,42.90
2024-02-18T10:06:47.089Z,42.57
2024-02-18T10:09:14.133Z,40.82
2024-02-18T10:11:40.998Z,41.17
2024-02-18T10:14:08.124Z,40.18
2024-02-18T10:16:37.282Z,39.20
2024-02-18T10:19:04.261Z,40.76
2024-02-18T10:21:31.117Z,40.43
2024-02-18T10:23:58.320Z,39.81
2024-02-18T10:26:25.376Z,39.99
2024-02-18T10:28:53.689Z,38.02
2024-02-18T10:31:20.462Z,38.33
2024-02-18T10:33:47.254Z,39.80
2024-02-18T10:36:15.612Z,38.43
2024-02-18T10:38:46.932Z,38.52
2024-02-18T10:41:21.082Z,38.12
2024-02-18T10:43:51.585Z,36.58
2024-02-18T10:46:22.990Z,37.19
2024-02-18T10:48:56.576Z,36.95
2024-02-18T10:51:31.285Z,37.51
2024-02-18T10:54:13.054Z,38.07
2024-02-18T10:56:41.891Z,38.93
2024-02-18T10:59:11.594Z,37.91
2024-02-18T11:01:44.449Z,38.67
2024-02-18T11:04:11.919Z,39.82
2024-02-18T11:06:39.682Z,37.32
2024-02-18T11:09:09.804Z,38.64
2024-02-18T11:11:37.750Z,38.88
2024-02-18T11:14:06.167Z,38.58
2024-02-18T11:16:36.277Z,37.82
2024-02-18T11:19:04.517Z,38.99
2024-02-18T11:21:31.981Z,38.98
2024-02-18T11:24:00.027Z,38.39
2024-02-18T11:26:27.048Z,37.98
2024-02-18T11:28:53.926Z,37.49
2024-02-18T11:31:31.513Z,37.85
2024-02-18T11:33:58.583Z,36.37
2024-02-18T11:36:28.084Z,36.62
2024-02-18T11:38:57.597Z,35.95
2024-02-18T11:41:33.242Z,36.61
2024-02-18T11:44:17.410Z,36.02
2024-02-18T11:46:46.442Z,34.87
2024-02-18T11:49:13.425Z,35.32
2024-02-18T11:51:41.421Z,34.84
2024-02-18T11:54:08.295Z,36.94
2024-02-18T11:56:35.473Z,35.82
2024-02-18T11:59:02.521Z,35.04
2024-02-18T12:01:31.540Z,34.31
2024-02-18T12:03:59.992Z,34.61
2024-02-18T12:06:27.000Z,35.04
2024-02-18T12:08:53.988Z,35.14
2024-02-18T12:11:20.760Z,35.52
2024-02-18T12:13:47.552Z,35.55
2024-02-18T12:16:14.536Z,35.19
2024-02-18T12:18:41.447Z,35.53
2024-02-18T12:21:08.631Z,34.02
2024-02-18T12:23:44.303Z,33.02
2024-02-18T12:26:11.817Z,32.40
2024-02-18T12:28:38.557Z,31.85
2024-02-18T12:31:05.827Z,32.47
2024-02-18T12:33:33.798Z,34.25
2024-02-18T12:36:00.864Z,35.52
2024-02-18T12:38:27.831Z,36.55
2024-02-18T12:40:57.208Z,36.12
2024-02-18T12:43:57.006Z,36.47
2024-02-18T12:46:13.329Z,37.67
2024-02-18T12:48:40.627Z,39.39
2024-02-18T12:51:12.573Z,37.48
2024-02-18T12:53:41.462Z,37.07
2024-02-18T12:56:10.844Z,36.91
2024-02-18T12:58:38.160Z,37.28
2024-02-18T13:01:05.781Z,38.60
2024-02-18T13:03:33.993Z,37.83
2024-02-18T13:06:01.820Z,37.92
2024-02-18T13:08:28.728Z,37.80
2024-02-18T13:10:56.997Z,38.72
2024-02-18T13:13:23.684Z,38.40
2024-02-18T13:15:53.251Z,37.58
2024-02-18T13:18:20.256Z,39.27
2024-02-18T13:20:47.037Z,38.86
2024-02-18T13:23:13.579Z,39.59
2024-02-18T13:25:40.263Z,39.68
2024-02-18T13:28:07.225Z,40.05
2024-02-18T13:30:34.053Z,39.90
2024-02-18T13:33:03.726Z,39.14
2024-02-18T13:35:30.462Z,39.86
2024-02-18T13:37:57.113Z,39.33
2024-02-18T13:40:23.937Z,40.49
2024-02-18T13:42:50.724Z,41.44
2024-02-18T13:45:17.446Z,41.49
2024-02-18T13:47:45.205Z,40.68
2024-02-18T13:50:12.263Z,39.90
2024-02-18T13:52:39.093Z,39.98
2024-02-18T13:55:06.348Z,40.41
2024-02-18T13:57:33.132Z,41.09
2024-02-18T13:59:59.816Z,40.03
2024-02-18T14:02:26.470Z,42.08
2024-02-18T14:04:53.298Z,41.24
2024-02-18T14:07:24.630Z,41.77
2024-02-18T14:09:51.508Z,41.62
2024-02-18T14:12:18.103Z,41.47
2024-02-18T14:14:50.410Z,41.55
2024-02-18T14:17:17.225Z,41.91
2024-02-18T14:19:44.023Z,41.40
2024-02-18T14:22:10.987Z,41.85
2024-02-18T14:24:37.795Z,41.16
2024-02-18T14:27:04.623Z,41.69
2024-02-18T14:29:31.288Z,41.92
2024-02-18T14:31:57.926Z,42.45
2024-02-18T14:34:24.843Z,42.40
2024-02-18T14:36:51.782Z,43.18
2024-02-18T14:39:18.494Z,42.11
2024-02-18T14:41:45.178Z,41.80
2024-02-18T14:44:11.848Z,42.04
2024-02-18T14:46:38.519Z,42.78
2024-02-18T14:49:05.298Z,43.50
2024-02-18T14:51:32.969Z,42.32
2024-02-18T14:53:59.786Z,42.80
2024-02-18T14:56:26.524Z,42.81
2024-02-18T14:58:53.415Z,42.83
2024-02-18T15:01:20.617Z,43.26
2024-02-18T15:03:47.597Z,43.15
2024-02-18T15:06:14.414Z,43.14
2024-02-18T15:08:41.869Z,44.50
2024-02-18T15:11:08.594Z,44.01
2024-02-18T15:13:35.305Z,44.48
2024-02-18T15:16:02.183Z,44.82
2024-02-18T15:18:28.847Z,45.62
2024-02-18T15:20:56.970Z,46.05
2024-02-18T15:23:23.781Z,47.02
2024-02-18T15:25:53.271Z,46.52
2024-02-18T15:28:20.714Z,47.11
2024-02-18T15:30:47.519Z,46.74
2024-02-18T15:33:14.393Z,46.92
2024-02-18T15:35:41.540Z,46.88
2024-02-18T15:38:08.501Z,47.23
2024-02-18T15:40:35.300Z,47.70
2024-02-18T15:43:02.465Z,47.98
2024-02-18T15:45:29.318Z,48.53
2024-02-18T15:47:57.463Z,48.55
2024-02-18T15:50:24.558Z,49.21
2024-02-18T15:52:51.437Z,49.19
2024-02-18T15:55:20.130Z,49.52
2024-02-18T15:57:47.198Z,49.56
2024-02-18T16:00:14.128Z,49.64
2024-02-18T16:02:40.978Z,49.98
2024-02-18T16:05:08.356Z,50.67
2024-02-18T16:07:35.185Z,50.61
2024-02-18T16:10:02.085Z,50.79
2024-02-18T16:12:28.857Z,51.31
2024-02-18T16:14:55.533Z,51.19
2024-02-18T16:17:25.033Z,52.32
2024-02-18T16:19:53.260Z,52.35
2024-02-18T16:22:20.005Z,52.49
2024-02-18T16:24:48.300Z,52.54
2024-02-18T16:27:15.057Z,53.25
2024-02-18T16:29:41.830Z,53.23
2024-02-18T16:32:11.044Z,53.31
2024-02-18T16:34:37.798Z,53.71
2024-02-18T16:37:04.883Z,54.31
2024-02-18T16:39:36.204Z,54.60
2024-02-18T16:42:04.008Z,54.78
2024-02-18T16:44:30.929Z,54.86
2024-02-18T16:47:01.425Z,54.76
2024-02-18T16:49:28.610Z,55.23
2024-02-18T16:51:57.411Z,55.30
2024-02-18T16:54:24.133Z,55.92
2024-02-18T16:56:51.957Z,55.92
2024-02-18T16:59:19.175Z,56.83
2024-02-18T17:01:50.198Z,57.11
2024-02-18T17:04:17.343Z,57.17
2024-02-18T17:06:44.219Z,58.50
2024-02-18T17:09:14.675Z,58.55
2024-02-18T17:11:41.491Z,58.90
2024-02-18T17:14:08.213Z,59.30
2024-02-18T17:16:37.681Z,59.36
2024-02-18T17:19:08.820Z,59.38
2024-02-18T17:21:35.749Z,59.62
2024-02-18T17:24:03.127Z,59.94
2024-02-18T17:26:31.787Z,60.59
2024-02-18T17:28:58.705Z,61.37
2024-02-18T17:31:26.693Z,61.85
2024-02-18T17:33:56.442Z,61.57
2024-02-18T17:36:24.651Z,62.08
2024-02-18T17:38:51.385Z,62.19
2024-02-18T17:41:18.134Z,62.24
2024-02-18T17:43:44.816Z,62.58
2024-02-18T17:46:11.557Z,62.84
2024-02-18T17:48:39.751Z,63.14
2024-02-18T17:51:07.665Z,62.70
2024-02-18T17:53:34.360Z,63.28
2024-02-18T17:56:01.083Z,63.07
2024-02-18T17:58:27.900Z,63.26
2024-02-18T18:00:55.253Z,63.52
2024-02-18T18:03:21.964Z,63.81
2024-02-18T18:05:48.629Z,64.25
2024-02-18T18:08:15.395Z,64.67
2024-02-18T18:10:42.124Z,65.24
2024-02-18T18:13:08.812Z,65.65
2024-02-18T18:15:35.573Z,65.90
2024-02-18T18:18:02.351Z,65.93
2024-02-18T18:20:29.074Z,65.93
2024-02-18T18:22:56.061Z,66.83
2024-02-18T18:25:22.864Z,66.91
2024-02-18T18:27:49.614Z,67.43
2024-02-18T18:30:16.417Z,67.77
2024-02-18T18:32:46.174Z,68.31
2024-02-18T18:35:13.183Z,68.23
2024-02-18T18:37:40.165Z,67.88
2024-02-18T18:40:09.189Z,67.71
2024-02-18T18:42:37.815Z,68.15
2024-02-18T18:45:08.511Z,68.27
2024-02-18T18:47:36.259Z,68.17
2024-02-18T18:50:05.846Z,68.26
2024-02-18T18:52:33.614Z,68.62
2024-02-18T18:55:00.509Z,68.79
2024-02-18T18:57:27.486Z,68.67
2024-02-18T18:59:54.197Z,68.73
2024-02-18T19:02:20.930Z,68.64
2024-02-18T19:04:47.813Z,68.92
2024-02-18T19:07:14.877Z,70.03
2024-02-18T19:09:41.700Z,70.02
2024-02-18T19:12:08.607Z,69.69
2024-02-18T19:14:35.264Z,69.85
2024-02-18T19:17:02.148Z,69.75
2024-02-18T19:19:28.953Z,69.79
2024-02-18T19:21:59.153Z,69.71
2024-02-18T19:24:27.036Z,69.64
2024-02-18T19:26:53.873Z,69.91
2024-02-18T19:29:21.241Z,70.13
2024-02-18T19:31:47.813Z,70.08
2024-02-18T19:34:14.589Z,70.60
2024-02-18T19:36:42.746Z,70.74
2024-02-18T19:39:11.501Z,72.31
2024-02-18T19:41:42.268Z,72.99
2024-02-18T19:44:09.581Z,72.50
2024-02-18T19:46:43.762Z,71.68
2024-02-18T19:49:11.834Z,71.94
2024-02-18T19:51:42.894Z,72.69
2024-02-18T19:54:09.850Z,72.94
2024-02-18T19:56:36.615Z,73.57
2024-02-18T19:59:04.156Z,73.86
2024-02-18T20:01:31.016Z,73.84
2024-02-18T20:03:57.867Z,75.82
2024-02-18T20:06:24.643Z,77.45
2024-02-18T20:08:51.372Z,77.77
2024-02-18T20:11:18.101Z,78.32
2024-02-18T20:13:44.804Z,78.12
2024-02-18T20:16:11.674Z,78.52
2024-02-18T20:18:38.600Z,79.19
2024-02-18T20:21:05.852Z,79.01
2024-02-18T20:23:32.674Z,77.73
2024-02-18T20:25:59.849Z,77.51
2024-02-18T20:28:26.794Z,77.23
2024-02-18T20:30:53.637Z,76.04
2024-02-18T20:33:20.603Z,75.23
2024-02-18T20:35:47.368Z,74.62
2024-02-18T20:38:14.065Z,74.40
2024-02-18T20:40:42.464Z,75.14
2024-02-18T20:43:09.346Z,75.09
2024-02-18T20:45:36.176Z,75.29
2024-02-18T20:48:04.344Z,75.61
2024-02-18T20:50:31.100Z,75.42
2024-02-18T20:52:59.050Z,75.58
2024-02-18T20:55:25.772Z,75.64
2024-02-18T20:57:52.841Z,75.29
2024-02-18T21:00:20.910Z,75.21
2024-02-18T21:02:47.615Z,75.65
2024-02-18T21:05:14.453Z,75.84
2024-02-18T21:07:41.216Z,76.36
2024-02-18T21:10:08.549Z,77.45
2024-02-18T21:12:35.355Z,77.75
2024-02-18T21:15:02.161Z,76.76
2024-02-18T21:17:29.424Z,76.11
2024-02-18T21:19:56.174Z,75.73
2024-02-18T21:22:23.059Z,75.27
2024-02-18T21:24:50.172Z,75.63
2024-02-18T21:27:16.913Z,75.45
2024-02-18T21:29:43.681Z,75.91
2024-02-18T21:32:10.425Z,75.75
2024-02-18T21:34:37.182Z,75.83
2024-02-18T21:37:04.124Z,75.57
2024-02-18T21:39:40.608Z,75.82
2024-02-18T21:42:14.623Z,75.53
2024-02-18T21:44:41.325Z,75.81
2024-02-18T21:47:08.063Z,75.68
2024-02-18T21:49:36.089Z,75.61
2024-02-18T21:52:04.105Z,75.13
2024-02-18T21:54:31.235Z,75.11
2024-02-18T21:56:58.148Z,75.00
2024-02-18T21:59:25.098Z,74.96
2024-02-18T22:01:53.443Z,74.93
2024-02-18T22:04:20.696Z,74.99
2024-02-18T22:07:00.561Z,74.58
2024-02-18T22:09:34.325Z,74.61
2024-02-18T22:12:01.029Z,74.67
2024-02-18T22:14:27.790Z,74.65
2024-02-18T22:16:54.464Z,74.46
2024-02-18T22:19:21.409Z,75.11
2024-02-18T22:21:48.546Z,75.36
2024-02-18T22:24:15.341Z,74.95
2024-02-18T22:26:43.455Z,74.92
2024-02-18T22:29:10.128Z,74.91
2024-02-18T22:31:36.806Z,75.64
2024-02-18T22:34:03.594Z,76.38
2024-02-18T22:36:30.307Z,76.84
2024-02-18T22:38:57.359Z,78.14
2024-02-18T22:41:24.034Z,78.56
2024-02-18T22:43:50.709Z,78.27
2024-02-18T22:46:17.561Z,78.86
2024-02-18T22:48:44.474Z,79.25
2024-02-18T22:51:11.270Z,78.91
2024-02-18T22:53:42.181Z,80.02
2024-02-18T22:56:09.672Z,81.76
2024-02-18T22:58:37.190Z,81.04
2024-02-18T23:01:04.824Z,80.19
2024-02-18T23:03:31.675Z,78.96
2024-02-18T23:05:58.395Z,77.00
2024-02-18T23:08:25.564Z,75.67
2024-02-18T23:10:52.360Z,74.97
2024-02-18T23:13:19.446Z,73.74
2024-02-18T23:15:46.159Z,73.01
2024-02-18T23:18:12.989Z,71.75
2024-02-18T23:20:40.436Z,71.84
2024-02-18T23:23:07.948Z,71.89
2024-02-18T23:25:34.823Z,71.70
2024-02-18T23:28:01.590Z,71.12
2024-02-18T23:30:28.346Z,70.68
2024-02-18T23:32:55.725Z,70.97
2024-02-18T23:35:23.098Z,70.97
2024-02-18T23:37:49.979Z,68.27
2024-02-18T23:40:16.823Z,68.82
2024-02-18T23:42:43.667Z,66.83
2024-02-18T23:45:10.591Z,66.70
2024-02-18T23:47:37.324Z,65.20
2024-02-18T23:50:04.432Z,64.37
2024-02-18T23:52:31.099Z,64.15
2024-02-18T23:55:00.114Z,66.40
2024-02-18T23:57:27.837Z,68.05
2024-02-18T23:59:54.722Z,67.62
